Home > Products > Valid Products > TAF

000
FTUS45 KTFX 292200 AAA
TAFLWT
TAF AMD
KLWT 292233Z 2923/3018 29012G18KT P6SM SCT120
     FM300200 22007KT P6SM SCT120=



000
FTUS45 KTFX 292200 AAB
TAFHLN
TAF AMD
KHLN 292232Z 2923/3018 26015G25KT P6SM BKN090
     FM300400 25006KT P6SM BKN150=



000
FTUS45 KTFX 292100 AAA
TAFHLN
TAF AMD
KHLN 292134Z 2922/3018 VRB06KT P6SM SCT100
     FM300400 25006KT P6SM BKN150=



000
FTUS45 KTFX 291700
TAFCTB
TAF
KCTB 291723Z 2918/3018 25020G35KT P6SM BKN120
     FM300300 25016KT P6SM SCT120=



000
FTUS45 KTFX 291700
TAFHLN
TAF
KHLN 291723Z 2918/3018 27010G20KT P6SM BKN100
     FM300400 25006KT P6SM BKN150=



000
FTUS45 KTFX 291700
TAFGTF
TAF
KGTF 291723Z 2918/3018 24018G28KT P6SM BKN120
     FM300200 24014KT P6SM SCT120=



000
FTUS45 KTFX 291700
TAFLWT
TAF
KLWT 291723Z 2918/3018 26014KT P6SM SCT150
     FM292200 26012G22KT P6SM BKN150
     FM300400 22007KT P6SM SCT120=



000
FTUS45 KTFX 291700
TAFBZN
TAF
KBZN 291723Z 2918/3018 27011KT P6SM BKN120
     FM300500 15005KT P6SM SCT150=



000
FTUS45 KTFX 291700
TAFCTB
TAF
KCTB 291723Z 2918/3018 25020G35KT P6SM BKN120
     FM300300 25016KT P6SM SCT120=



000
FTUS45 KTFX 291700
TAFHVR
TAF
KHVR 291723Z 2918/3018 25020KT P6SM BKN150
     FM300200 25011KT P6SM SCT100=



000
FTUS45 KTFX 291700
TAFBZN
TAF
KBZN 291723Z 2918/3018 27011KT P6SM BKN120
     FM300500 15005KT P6SM SCT150=



000
FTUS45 KTFX 291700
TAFGTF
TAF
KGTF 291723Z 2918/3018 24018G28KT P6SM BKN120
     FM300200 24014KT P6SM SCT120=



000
FTUS45 KTFX 291700
TAFLWT
TAF
KLWT 291723Z 2918/3018 26014KT P6SM SCT150
     FM292200 26012G22KT P6SM BKN150
     FM300400 22007KT P6SM SCT120=



000
FTUS45 KTFX 291700
TAFHVR
TAF
KHVR 291723Z 2918/3018 25020KT P6SM BKN150
     FM300200 25011KT P6SM SCT100=



000
FTUS45 KTFX 291700
TAFHLN
TAF
KHLN 291723Z 2918/3018 27010G20KT P6SM BKN100
     FM300400 25006KT P6SM BKN150=



000
FTUS45 KTFX 291100
TAFBZN
TAF
KBZN 291134Z 2912/3012 15005KT P6SM BKN250
     FM292100 27010KT P6SM BKN100
     FM300200 15005KT P6SM SKC=



000
FTUS45 KTFX 291100
TAFHLN
TAF
KHLN 291134Z 2912/3012 25005KT P6SM BKN250
     FM292000 27010G20KT P6SM BKN250
     FM300400 25005KT P6SM SCT100=



000
FTUS45 KTFX 291100
TAFHVR
TAF
KHVR 291134Z 2912/3012 23010KT P6SM SKC
     FM291400 25015G25KT P6SM BKN250
     FM300100 24015KT P6SM SKC=



000
FTUS45 KTFX 291100
TAFCTB
TAF
KCTB 291134Z 2912/3012 26020KT P6SM BKN250
     FM291600 25025G35KT P6SM BKN250=



000
FTUS45 KTFX 291100
TAFGTF
TAF
KGTF 291134Z 2912/3012 22010KT P6SM BKN250
     FM291500 24020G30KT P6SM BKN250
     FM300100 24015KT P6SM SCT100=



000
FTUS45 KTFX 291100
TAFLWT
TAF
KLWT 291134Z 2912/3012 26010KT P6SM SKC
     FM291800 27010G20KT P6SM BKN250
     FM300200 25010KT P6SM SKC=



000
FTUS45 KTFX 291100
TAFCTB
TAF
KCTB 291134Z 2912/3012 26020KT P6SM BKN250
     FM291600 25025G35KT P6SM BKN250=



000
FTUS45 KTFX 291100
TAFHLN
TAF
KHLN 291134Z 2912/3012 25005KT P6SM BKN250
     FM292000 27010G20KT P6SM BKN250
     FM300400 25005KT P6SM SCT100=



000
FTUS45 KTFX 291100
TAFGTF
TAF
KGTF 291134Z 2912/3012 22010KT P6SM BKN250
     FM291500 24020G30KT P6SM BKN250
     FM300100 24015KT P6SM SCT100=



000
FTUS45 KTFX 291100
TAFLWT
TAF
KLWT 291134Z 2912/3012 26010KT P6SM SKC
     FM291800 27010G20KT P6SM BKN250
     FM300200 25010KT P6SM SKC=



000
FTUS45 KTFX 291100
TAFHVR
TAF
KHVR 291134Z 2912/3012 23010KT P6SM SKC
     FM291400 25015G25KT P6SM BKN250
     FM300100 24015KT P6SM SKC=



000
FTUS45 KTFX 291100
TAFBZN
TAF
KBZN 291134Z 2912/3012 15005KT P6SM BKN250
     FM292100 27010KT P6SM BKN100
     FM300200 15005KT P6SM SKC=



000
FTUS45 KTFX 290500
TAFHLN
TAF
KHLN 290520Z 2906/3006 27012KT P6SM FEW080
     FM290800 25006KT P6SM SCT250
     FM291200 VRB04KT P6SM BKN250
     FM291800 27010KT P6SM BKN250
     FM300000 27010KT P6SM SCT100
     FM300400 27006KT P6SM BKN250=



000
FTUS45 KTFX 290500
TAFBZN
TAF
KBZN 290520Z 2906/3006 28008KT P6SM SCT090
     FM290800 VRB05KT P6SM SKC
     FM291200 VRB05KT P6SM BKN250
     FM292100 27008KT P6SM BKN100
     FM300300 VRB05KT P6SM SKC=



000
FTUS45 KTFX 290500
TAFHVR
TAF
KHVR 290520Z 2906/3006 24010KT P6SM BKN050
     FM290700 24010KT P6SM SKC
     FM291400 24014KT P6SM BKN250
     FM292000 25018G25KT P6SM FEW080 BKN250
     FM300100 24010KT P6SM SKC=



000
FTUS45 KTFX 290500
TAFHLN
TAF
KHLN 290520Z 2906/3006 27012KT P6SM FEW080
     FM290800 25006KT P6SM SCT250
     FM291200 VRB04KT P6SM BKN250
     FM291800 27010KT P6SM BKN250
     FM300000 27010KT P6SM SCT100
     FM300400 27006KT P6SM BKN250=



000
FTUS45 KTFX 290500
TAFCTB
TAF
KCTB 290520Z 2906/3006 26010KT P6SM BKN250
     FM291600 25018G25KT P6SM BKN250
     FM291900 26024G32KT P6SM BKN250
     FM300400 26015KT P6SM BKN250=



000
FTUS45 KTFX 290500
TAFGTF
TAF
KGTF 290520Z 2906/3006 25010KT P6SM BKN250
     FM290800 23010KT P6SM SCT250
     FM291200 23010KT P6SM BKN250
     FM291800 24020G28KT P6SM BKN250
     FM300100 24015KT P6SM SKC
     FM300400 24010KT P6SM BKN250=



000
FTUS45 KTFX 290500
TAFHVR
TAF
KHVR 290520Z 2906/3006 24010KT P6SM BKN050
     FM290700 24010KT P6SM SKC
     FM291400 24014KT P6SM BKN250
     FM292000 25018G25KT P6SM FEW080 BKN250
     FM300100 24010KT P6SM SKC=



000
FTUS45 KTFX 290500
TAFGTF
TAF
KGTF 290520Z 2906/3006 25010KT P6SM BKN250
     FM290800 23010KT P6SM SCT250
     FM291200 23010KT P6SM BKN250
     FM291800 24020G28KT P6SM BKN250
     FM300100 24015KT P6SM SKC
     FM300400 24010KT P6SM BKN250=



000
FTUS45 KTFX 290500
TAFCTB
TAF
KCTB 290520Z 2906/3006 26010KT P6SM BKN250
     FM291600 25018G25KT P6SM BKN250
     FM291900 26024G32KT P6SM BKN250
     FM300400 26015KT P6SM BKN250=



000
FTUS45 KTFX 290500
TAFLWT
TAF
KLWT 290520Z 2906/3006 27010KT P6SM OVC060
     FM290800 26010KT P6SM SKC
     FM291700 27012KT P6SM BKN250
     FM300100 24008KT P6SM SKC=



000
FTUS45 KTFX 290500
TAFBZN
TAF
KBZN 290520Z 2906/3006 28008KT P6SM SCT090
     FM290800 VRB05KT P6SM SKC
     FM291200 VRB05KT P6SM BKN250
     FM292100 27008KT P6SM BKN100
     FM300300 VRB05KT P6SM SKC=



000
FTUS45 KTFX 290500
TAFLWT
TAF
KLWT 290520Z 2906/3006 27010KT P6SM OVC060
     FM290800 26010KT P6SM SKC
     FM291700 27012KT P6SM BKN250
     FM300100 24008KT P6SM SKC=



000
FTUS45 KTFX 290300 AAB
TAFHVR
TAF AMD
KHVR 290306Z 2903/2924 28012G20KT P6SM OVC025
     FM290400 27012KT P6SM OVC080
     FM290900 24010KT P6SM SCT080
     FM291400 24014KT P6SM BKN250
     FM292000 25018G25KT P6SM FEW090 BKN250=



000
FTUS45 KTFX 290300 AAA
TAFCTB
TAF AMD
KCTB 290305Z 2903/2924 27015G22KT P6SM SCT080
     FM290600 26010KT P6SM BKN250
     FM291600 25018G25KT P6SM BKN250
     FM291900 26024G32KT P6SM BKN250=



000
FTUS45 KTFX 290300 AAA
TAFCTB
TAF AMD
KCTB 290305Z 2903/2924 27015G22KT P6SM SCT080
     FM290600 26010KT P6SM BKN250
     FM291600 25018G25KT P6SM BKN250
     FM291900 26024G32KT P6SM BKN250=



000
FTUS45 KTFX 290300 AAA
TAFHLN
TAF AMD
KHLN 290303Z 2903/2924 28015G22KT P6SM SCT080
     FM290600 27008KT P6SM SCT080
     FM290800 VRB05KT P6SM BKN250
     FM291900 27012KT P6SM BKN140=



000
FTUS45 KTFX 290300 AAA
TAFHLN
TAF AMD
KHLN 290303Z 2903/2924 28015G22KT P6SM SCT080
     FM290600 27008KT P6SM SCT080
     FM290800 VRB05KT P6SM BKN250
     FM291900 27012KT P6SM BKN140=



000
FTUS45 KTFX 290100 AAA
TAFGTF
TAF AMD
KGTF 290112Z 2901/2924 28020G28KT P6SM VCSH OVC050
     FM290400 28010KT P6SM BKN080
     FM290800 22010KT P6SM BKN250
     FM291800 22018G25KT P6SM BKN250=



000
FTUS45 KTFX 290100 AAA
TAFGTF
TAF AMD
KGTF 290112Z 2901/2924 28020G28KT P6SM VCSH OVC050
     FM290400 28010KT P6SM BKN080
     FM290800 22010KT P6SM BKN250
     FM291800 22018G25KT P6SM BKN250=



000
FTUS45 KTFX 290100 AAA
TAFHVR
TAF AMD
KHVR 290108Z 2901/2924 29020G30KT P6SM -RA BKN025 OVC040
     FM290300 29016KT P6SM OVC080
     FM290900 24010KT P6SM SCT080
     FM291400 24014KT P6SM BKN250
     FM292000 25018G25KT P6SM FEW090 BKN250=



000
FTUS45 KTFX 290100 AAA
TAFHVR
TAF AMD
KHVR 290108Z 2901/2924 29020G30KT P6SM -RA BKN025 OVC040
     FM290300 29016KT P6SM OVC080
     FM290900 24010KT P6SM SCT080
     FM291400 24014KT P6SM BKN250
     FM292000 25018G25KT P6SM FEW090 BKN250=



000
FTUS45 KTFX 282300
TAFBZN
TAF
KBZN 282335Z 2900/2924 28022G32KT P6SM BKN100
     FM290300 28010KT P6SM BKN100
     FM290800 VRB05KT P6SM BKN250
     FM292200 27010KT P6SM BKN120=



000
FTUS45 KTFX 282300
TAFHLN
TAF
KHLN 282335Z 2900/2924 28022G32KT P6SM BKN080
     FM290300 27015KT P6SM BKN080
     FM290600 27008KT P6SM SCT080
     FM290800 VRB05KT P6SM BKN250
     FM291900 27012KT P6SM BKN140=



000
FTUS45 KTFX 282300
TAFLWT
TAF
KLWT 282335Z 2900/2924 28028G35KT P6SM OVC060
     FM290100 29025G35KT P6SM -SHRA OVC040
      TEMPO 2901/2905 5SM SHRA OVC015
     FM290500 29018KT P6SM OVC070
     FM290900 26010KT P6SM SCT070
     FM291700 27012KT P6SM BKN250=



000
FTUS45 KTFX 282300
TAFHVR
TAF
KHVR 282335Z 2900/2924 29024G34KT P6SM -SHRA OVC050
     FM290200 29016KT P6SM OVC080
     FM290900 24010KT P6SM SCT080
     FM291400 24014KT P6SM BKN250
     FM292000 25018G25KT P6SM FEW090 BKN250=



000
FTUS45 KTFX 282300
TAFGTF
TAF
KGTF 282335Z 2900/2924 27030G40KT P6SM BKN060
      TEMPO 2900/2902 3SM BLDU
     FM290200 28018G25KT P6SM BKN060
     FM290400 28010KT P6SM BKN080
     FM290800 22010KT P6SM BKN250
     FM291800 22018G25KT P6SM BKN250=



000
FTUS45 KTFX 282300
TAFCTB
TAF
KCTB 282335Z 2900/2924 28028G38KT P6SM -SHRA OVC050
     FM290300 29015KT P6SM BKN080
     FM290600 26010KT P6SM BKN250
     FM291600 25018G25KT P6SM BKN250
     FM291900 26024G32KT P6SM BKN250=



000
FTUS45 KTFX 282300
TAFHLN
TAF
KHLN 282335Z 2900/2924 28022G32KT P6SM BKN080
     FM290300 27015KT P6SM BKN080
     FM290600 27008KT P6SM SCT080
     FM290800 VRB05KT P6SM BKN250
     FM291900 27012KT P6SM BKN140=



000
FTUS45 KTFX 282300
TAFLWT
TAF
KLWT 282335Z 2900/2924 28028G35KT P6SM OVC060
     FM290100 29025G35KT P6SM -SHRA OVC040
      TEMPO 2901/2905 5SM SHRA OVC015
     FM290500 29018KT P6SM OVC070
     FM290900 26010KT P6SM SCT070
     FM291700 27012KT P6SM BKN250=



000
FTUS45 KTFX 282300
TAFHVR
TAF
KHVR 282335Z 2900/2924 29024G34KT P6SM -SHRA OVC050
     FM290200 29016KT P6SM OVC080
     FM290900 24010KT P6SM SCT080
     FM291400 24014KT P6SM BKN250
     FM292000 25018G25KT P6SM FEW090 BKN250=



000
FTUS45 KTFX 282300
TAFGTF
TAF
KGTF 282335Z 2900/2924 27030G40KT P6SM BKN060
      TEMPO 2900/2902 3SM BLDU
     FM290200 28018G25KT P6SM BKN060
     FM290400 28010KT P6SM BKN080
     FM290800 22010KT P6SM BKN250
     FM291800 22018G25KT P6SM BKN250=



000
FTUS45 KTFX 282300
TAFBZN
TAF
KBZN 282335Z 2900/2924 28022G32KT P6SM BKN100
     FM290300 28010KT P6SM BKN100
     FM290800 VRB05KT P6SM BKN250
     FM292200 27010KT P6SM BKN120=



000
FTUS45 KTFX 282300
TAFCTB
TAF
KCTB 282335Z 2900/2924 28028G38KT P6SM -SHRA OVC050
     FM290300 29015KT P6SM BKN080
     FM290600 26010KT P6SM BKN250
     FM291600 25018G25KT P6SM BKN250
     FM291900 26024G32KT P6SM BKN250=



000
FTUS45 KTFX 282300 AAB
TAFGTF
TAF AMD
KGTF 282303Z 2823/2918 26030G40KT P6SM BKN090
      TEMPO 2823/2902 2SM BLDU
     FM290200 27018G25KT P6SM BKN120
     FM290600 22010KT P6SM BKN250
     FM291500 23016G25KT P6SM BKN250=



000
FTUS45 KTFX 282300 AAB
TAFGTF
TAF AMD
KGTF 282303Z 2823/2918 26030G40KT P6SM BKN090
      TEMPO 2823/2902 2SM BLDU
     FM290200 27018G25KT P6SM BKN120
     FM290600 22010KT P6SM BKN250
     FM291500 23016G25KT P6SM BKN250=



000
FTUS45 KTFX 282100 AAA
TAFLWT
TAF AMD
KLWT 282138Z 2822/2918 27035G45KT P6SM BKN090
     FM290100 29025G35KT P6SM -SHRA OVC040
      TEMPO 2901/2905 5SM SHRA OVC015
     FM290500 29012KT P6SM OVC070
     FM290900 25010KT P6SM SCT070
     FM291700 27010KT P6SM BKN250=



000
FTUS45 KTFX 282100 AAA
TAFBZN
TAF AMD
KBZN 282122Z 2821/2918 28026G36KT P6SM SCT100
      TEMPO 2821/2824 27034G45KT
     FM290300 28010KT P6SM SKC
     FM290800 VRB05KT P6SM SKC
     FM291500 VRB05KT P6SM BKN250=



000
FTUS45 KTFX 282100 AAA
TAFHLN
TAF AMD
KHLN 282114Z 2821/2918 28028G38KT P6SM SCT080
      TEMPO 2821/2824 28035G50KT
     FM290200 28020KT P6SM SCT080
     FM290800 27010KT P6SM BKN250=



000
FTUS45 KTFX 281700 AAA
TAFGTF
TAF AMD
KGTF 281759Z 2818/2918 26034G46KT P6SM BKN090
      TEMPO 2818/2819 2SM BLDU
     FM290200 27018G25KT P6SM BKN120
     FM290600 22010KT P6SM BKN250
     FM291500 23016G25KT P6SM BKN250=



000
FTUS45 KTFX 281700 AAA
TAFGTF
TAF AMD
KGTF 281759Z 2818/2918 26034G46KT P6SM BKN090
      TEMPO 2818/2819 2SM BLDU
     FM290200 27018G25KT P6SM BKN120
     FM290600 22010KT P6SM BKN250
     FM291500 23016G25KT P6SM BKN250=



000
FTUS45 KTFX 281700
TAFHLN
TAF
KHLN 281730Z 2818/2918 28035G50KT P6SM SCT050 BKN080
     FM290800 27010KT P6SM BKN250=



000
FTUS45 KTFX 281700
TAFLWT
TAF
KLWT 281730Z 2818/2918 23029G42KT P6SM BKN060
     FM290700 25010KT P6SM BKN090=



000
FTUS45 KTFX 281700
TAFCTB
TAF
KCTB 281730Z 2818/2918 28038G50KT P6SM BKN090
     FM290200 29020G28KT P6SM BKN080
     FM290600 27010KT P6SM BKN080
     FM291000 25025G35KT P6SM BKN120=



000
FTUS45 KTFX 281700
TAFGTF
TAF
KGTF 281730Z 2818/2918 26034G46KT P6SM BKN090
     FM290200 27018G25KT P6SM BKN120
     FM290600 22010KT P6SM BKN250
     FM291500 23016G25KT P6SM BKN250=



000
FTUS45 KTFX 281700
TAFBZN
TAF
KBZN 281730Z 2818/2918 28032G48KT P6SM SCT040 BKN110
     FM290300 25010KT P6SM BKN250=



000
FTUS45 KTFX 281700
TAFLWT
TAF
KLWT 281730Z 2818/2918 23029G42KT P6SM BKN060
     FM290700 25010KT P6SM BKN090=



000
FTUS45 KTFX 281700
TAFGTF
TAF
KGTF 281730Z 2818/2918 26034G46KT P6SM BKN090
     FM290200 27018G25KT P6SM BKN120
     FM290600 22010KT P6SM BKN250
     FM291500 23016G25KT P6SM BKN250=



000
FTUS45 KTFX 281700
TAFCTB
TAF
KCTB 281730Z 2818/2918 28038G50KT P6SM BKN090
     FM290200 29020G28KT P6SM BKN080
     FM290600 27010KT P6SM BKN080
     FM291000 25025G35KT P6SM BKN120=



000
FTUS45 KTFX 281700
TAFHLN
TAF
KHLN 281730Z 2818/2918 28035G50KT P6SM SCT050 BKN080
     FM290800 27010KT P6SM BKN250=



000
FTUS45 KTFX 281700
TAFHVR
TAF
KHVR 281730Z 2818/2918 26030G42KT P6SM BKN060
      TEMPO 2900/2904 -SHRA
     FM290600 28010KT P6SM BKN080
     FM291500 24015G25KT P6SM BKN140=



000
FTUS45 KTFX 281700
TAFBZN
TAF
KBZN 281730Z 2818/2918 28032G48KT P6SM SCT040 BKN110
     FM290300 25010KT P6SM BKN250=



000
FTUS45 KTFX 281700
TAFHVR
TAF
KHVR 281730Z 2818/2918 26030G42KT P6SM BKN060
      TEMPO 2900/2904 -SHRA
     FM290600 28010KT P6SM BKN080
     FM291500 24015G25KT P6SM BKN140=



000
FTUS45 KTFX 281500 AAA
TAFGTF
TAF AMD
KGTF 281525Z 2815/2912 24017G25KT P6SM SCT090
     FM281630 27030G40KT P6SM BKN100
     FM290500 22010KT P6SM BKN250=



000
FTUS45 KTFX 281500 AAA
TAFHLN
TAF AMD
KHLN 281523Z 2815/2912 30018G28KT P6SM BKN100
     FM281700 28025G35KT P6SM SCT050 BKN080
     FM282100 29035G45KT P6SM BKN100
     FM290300 27010KT P6SM BKN250=



000
FTUS45 KTFX 281500 AAA
TAFBZN
TAF AMD
KBZN 281522Z 2815/2912 VRB05KT P6SM BKN150
     FM281800 28020G30KT P6SM SCT050 BKN120
     FM282000 28030G40KT P6SM SCT040 BKN250
     FM290300 25010KT P6SM BKN250=



000
FTUS45 KTFX 281100
TAFLWT
TAF
KLWT 281130Z 2812/2912 24010KT P6SM BKN100
     FM281700 28025G35KT P6SM BKN060
     FM290600 25010KT P6SM BKN090=



000
FTUS45 KTFX 281100
TAFCTB
TAF
KCTB 281130Z 2812/2912 24010KT P6SM BKN120
     FM281500 25025G35KT P6SM SCT050 BKN090
     FM281800 28040G50KT P6SM BKN060
     FM282200 29030G40KT P6SM BKN080
     FM290300 27010KT P6SM BKN080=



000
FTUS45 KTFX 281100
TAFBZN
TAF
KBZN 281130Z 2812/2912 VRB05KT P6SM SKC
     FM281500 28020G30KT P6SM SCT050 BKN120
     FM282000 28030G40KT P6SM SCT040 BKN250
     FM290300 25010KT P6SM BKN250=



000
FTUS45 KTFX 281100
TAFGTF
TAF
KGTF 281130Z 2812/2912 21010KT P6SM SCT080 BKN120
     FM281500 22020G30KT P6SM SCT050 BKN070
     FM281800 27030G40KT P6SM BKN100
     FM290500 22010KT P6SM BKN250=



000
FTUS45 KTFX 281100
TAFHLN
TAF
KHLN 281130Z 2812/2912 28010KT P6SM BKN100
     FM281700 28025G35KT P6SM SCT050 BKN080
     FM282100 29035G45KT P6SM BKN100
     FM290300 27010KT P6SM BKN250=



000
FTUS45 KTFX 281100
TAFGTF
TAF
KGTF 281130Z 2812/2912 21010KT P6SM SCT080 BKN120
     FM281500 22020G30KT P6SM SCT050 BKN070
     FM281800 27030G40KT P6SM BKN100
     FM290500 22010KT P6SM BKN250=



000
FTUS45 KTFX 281100
TAFHVR
TAF
KHVR 281130Z 2812/2912 24010KT P6SM BKN090
     FM281700 26025G35KT P6SM BKN060
      TEMPO 2900/2904 -SHRA
     FM290500 28010KT P6SM BKN080=



000
FTUS45 KTFX 281100
TAFBZN
TAF
KBZN 281130Z 2812/2912 VRB05KT P6SM SKC
     FM281500 28020G30KT P6SM SCT050 BKN120
     FM282000 28030G40KT P6SM SCT040 BKN250
     FM290300 25010KT P6SM BKN250=



000
FTUS45 KTFX 281100
TAFCTB
TAF
KCTB 281130Z 2812/2912 24010KT P6SM BKN120
     FM281500 25025G35KT P6SM SCT050 BKN090
     FM281800 28040G50KT P6SM BKN060
     FM282200 29030G40KT P6SM BKN080
     FM290300 27010KT P6SM BKN080=



000
FTUS45 KTFX 281100
TAFLWT
TAF
KLWT 281130Z 2812/2912 24010KT P6SM BKN100
     FM281700 28025G35KT P6SM BKN060
     FM290600 25010KT P6SM BKN090=



000
FTUS45 KTFX 281100
TAFHLN
TAF
KHLN 281130Z 2812/2912 28010KT P6SM BKN100
     FM281700 28025G35KT P6SM SCT050 BKN080
     FM282100 29035G45KT P6SM BKN100
     FM290300 27010KT P6SM BKN250=



000
FTUS45 KTFX 281100
TAFHVR
TAF
KHVR 281130Z 2812/2912 24010KT P6SM BKN090
     FM281700 26025G35KT P6SM BKN060
      TEMPO 2900/2904 -SHRA
     FM290500 28010KT P6SM BKN080=



000
FTUS45 KTFX 280500
TAFHLN
TAF
KHLN 280520Z 2806/2906 22006KT P6SM FEW120
     FM281100 25012KT P6SM BKN100
     FM281700 28025G38KT P6SM SCT050 BKN080
     FM290300 25010KT P6SM BKN100=



000
FTUS45 KTFX 280500
TAFGTF
TAF
KGTF 280520Z 2806/2906 20006KT P6SM SCT150
     FM281000 24012KT P6SM SCT080 BKN120
     FM281600 26028G50KT P6SM SCT050 BKN070 PROB30 2820/2901 -SHRA
      BKN050
     FM290300 24015KT P6SM BKN090=



000
FTUS45 KTFX 280500
TAFCTB
TAF
KCTB 280520Z 2806/2906 24011KT P6SM BKN120
     FM281500 25035G50KT P6SM SCT050 BKN090
     FM282000 28030G50KT P6SM BKN060
      TEMPO 2820/2824 -SHRA
     FM290300 26013KT P6SM BKN080=



000
FTUS45 KTFX 280500
TAFGTF
TAF
KGTF 280520Z 2806/2906 20006KT P6SM SCT150
     FM281000 24012KT P6SM SCT080 BKN120
     FM281600 26028G50KT P6SM SCT050 BKN070 PROB30 2820/2901 -SHRA
      BKN050
     FM290300 24015KT P6SM BKN090=



000
FTUS45 KTFX 280500
TAFLWT
TAF
KLWT 280520Z 2806/2906 22010KT P6SM SCT150
     FM281500 24013KT P6SM BKN100
     FM281800 28025G40KT P6SM BKN060 PROB30 2821/2903 -SHRA
     FM290300 30012KT P6SM BKN090=



000
FTUS45 KTFX 280500
TAFHVR
TAF
KHVR 280520Z 2806/2906 21007KT P6SM BKN120
     FM281500 24015KT P6SM BKN090
     FM281800 26025G40KT P6SM BKN060
      TEMPO 2820/2824 -SHRA
     FM290300 28012KT P6SM BKN080=



000
FTUS45 KTFX 280500
TAFLWT
TAF
KLWT 280520Z 2806/2906 22010KT P6SM SCT150
     FM281500 24013KT P6SM BKN100
     FM281800 28025G40KT P6SM BKN060 PROB30 2821/2903 -SHRA
     FM290300 30012KT P6SM BKN090=



000
FTUS45 KTFX 280500
TAFBZN
TAF
KBZN 280520Z 2806/2906 VRB05KT P6SM SKC
     FM281400 24010KT P6SM SCT080 BKN120
     FM281700 28022G35KT P6SM SCT040 BKN070 PROB30 2820/2824 -SHRA
      BKN040
     FM290300 25010KT P6SM BKN090=



000
FTUS45 KTFX 280500
TAFCTB
TAF
KCTB 280520Z 2806/2906 24011KT P6SM BKN120
     FM281500 25035G50KT P6SM SCT050 BKN090
     FM282000 28030G50KT P6SM BKN060
      TEMPO 2820/2824 -SHRA
     FM290300 26013KT P6SM BKN080=



000
FTUS45 KTFX 280500
TAFBZN
TAF
KBZN 280520Z 2806/2906 VRB05KT P6SM SKC
     FM281400 24010KT P6SM SCT080 BKN120
     FM281700 28022G35KT P6SM SCT040 BKN070 PROB30 2820/2824 -SHRA
      BKN040
     FM290300 25010KT P6SM BKN090=



000
FTUS45 KTFX 280500
TAFHVR
TAF
KHVR 280520Z 2806/2906 21007KT P6SM BKN120
     FM281500 24015KT P6SM BKN090
     FM281800 26025G40KT P6SM BKN060
      TEMPO 2820/2824 -SHRA
     FM290300 28012KT P6SM BKN080=



000
FTUS45 KTFX 280500
TAFHLN
TAF
KHLN 280520Z 2806/2906 22006KT P6SM FEW120
     FM281100 25012KT P6SM BKN100
     FM281700 28025G38KT P6SM SCT050 BKN080
     FM290300 25010KT P6SM BKN100=



000
FTUS45 KTFX 280300 AAA
TAFHVR
TAF AMD
KHVR 280317Z 2803/2824 22008KT P6SM SCT150
     FM281400 24015KT P6SM BKN120
     FM281800 26025G40KT P6SM BKN060
      TEMPO 2820/2824 -SHRA=



000
FTUS45 KTFX 272300
TAFHVR
TAF
KHVR 272327Z 2800/2824 32012KT P6SM SCT150
     FM281400 24015KT P6SM BKN120
     FM281800 26025G40KT P6SM BKN060
      TEMPO 2820/2824 -SHRA=



000
FTUS45 KTFX 272300
TAFBZN
TAF
KBZN 272327Z 2800/2824 VRB05KT P6SM SCT090
     FM281400 24010KT P6SM SCT080 BKN120
     FM281700 28020G30KT P6SM SCT040 BKN070 PROB30 2820/2824 -SHRA
      BKN040=



000
FTUS45 KTFX 272300
TAFHLN
TAF
KHLN 272327Z 2800/2824 VRB05KT P6SM SCT090
     FM281200 24010KT P6SM BKN120
     FM281700 28020G30KT P6SM SCT050 BKN080=



000
FTUS45 KTFX 272300
TAFLWT
TAF
KLWT 272327Z 2800/2824 30012G22KT P6SM FEW120
     FM280200 23007KT P6SM SCT150
     FM281500 24013KT P6SM BKN100
     FM281800 28022G35KT P6SM BKN060 PROB30 2820/2824 -SHRA=



000
FTUS45 KTFX 272300
TAFCTB
TAF
KCTB 272327Z 2800/2824 26022G32KT P6SM SCT100 BKN150
     FM280300 24015KT P6SM SCT120 BKN150
     FM281200 25020G30KT P6SM BKN120
     FM281600 28035G50KT P6SM SCT050 BKN090
     FM282000 28030G50KT P6SM BKN060
      TEMPO 2820/2824 -SHRA=



000
FTUS45 KTFX 272300
TAFGTF
TAF
KGTF 272327Z 2800/2824 26015G22KT P6SM SCT120
     FM280200 24010KT P6SM SCT150
     FM281100 24012KT P6SM SCT080 BKN120
     FM281700 26025G40KT P6SM SCT050 BKN090 PROB30 2820/2824 -SHRA
      BKN050=



000
FTUS45 KTFX 272300
TAFHLN
TAF
KHLN 272327Z 2800/2824 VRB05KT P6SM SCT090
     FM281200 24010KT P6SM BKN120
     FM281700 28020G30KT P6SM SCT050 BKN080=



000
FTUS45 KTFX 272300
TAFLWT
TAF
KLWT 272327Z 2800/2824 30012G22KT P6SM FEW120
     FM280200 23007KT P6SM SCT150
     FM281500 24013KT P6SM BKN100
     FM281800 28022G35KT P6SM BKN060 PROB30 2820/2824 -SHRA=



000
FTUS45 KTFX 272300
TAFCTB
TAF
KCTB 272327Z 2800/2824 26022G32KT P6SM SCT100 BKN150
     FM280300 24015KT P6SM SCT120 BKN150
     FM281200 25020G30KT P6SM BKN120
     FM281600 28035G50KT P6SM SCT050 BKN090
     FM282000 28030G50KT P6SM BKN060
      TEMPO 2820/2824 -SHRA=



000
FTUS45 KTFX 272300
TAFGTF
TAF
KGTF 272327Z 2800/2824 26015G22KT P6SM SCT120
     FM280200 24010KT P6SM SCT150
     FM281100 24012KT P6SM SCT080 BKN120
     FM281700 26025G40KT P6SM SCT050 BKN090 PROB30 2820/2824 -SHRA
      BKN050=



000
FTUS45 KTFX 272300
TAFHVR
TAF
KHVR 272327Z 2800/2824 32012KT P6SM SCT150
     FM281400 24015KT P6SM BKN120
     FM281800 26025G40KT P6SM BKN060
      TEMPO 2820/2824 -SHRA=



000
FTUS45 KTFX 272300
TAFBZN
TAF
KBZN 272327Z 2800/2824 VRB05KT P6SM SCT090
     FM281400 24010KT P6SM SCT080 BKN120
     FM281700 28020G30KT P6SM SCT040 BKN070 PROB30 2820/2824 -SHRA
      BKN040=



000
FTUS45 KTFX 272000 AAA
TAFHLN
TAF AMD
KHLN 272000Z 2720/2818 VRB05KT P6SM BKN150
      TEMPO 2721/2724 26015KT
     FM280300 22005KT P6SM SCT100 BKN150
     FM281500 26015G22KT P6SM SCT100 BKN150=



000
FTUS45 KTFX 272000 AAA
TAFHLN
TAF AMD
KHLN 272000Z 2720/2818 VRB05KT P6SM BKN150
      TEMPO 2721/2724 26015KT
     FM280300 22005KT P6SM SCT100 BKN150
     FM281500 26015G22KT P6SM SCT100 BKN150=



000
FTUS45 KTFX 271700
TAFBZN
TAF
KBZN 271728Z 2718/2818 27010KT P6SM SCT120
     FM280300 15005KT P6SM SCT120
     FM281400 24011KT P6SM SCT100 BKN150=



000
FTUS45 KTFX 271700
TAFLWT
TAF
KLWT 271728Z 2718/2818 30011KT P6SM SCT120
     FM272000 29010G20KT P6SM SCT120 BKN150
     FM280100 23005KT P6SM SCT120=



000
FTUS45 KTFX 271700
TAFHLN
TAF
KHLN 271728Z 2718/2818 VRB05KT P6SM BKN150
     FM272000 27015KT P6SM SCT120 BKN150
     FM280300 22005KT P6SM SCT100 BKN150
     FM281500 26015G22KT P6SM SCT100 BKN150=



000
FTUS45 KTFX 271700
TAFGTF
TAF
KGTF 271728Z 2718/2818 25015G25KT P6SM SCT120 BKN150
     FM280200 23010KT P6SM SCT150
     FM280700 21015KT P6SM SCT120 BKN150
     FM281400 25020G30KT P6SM SCT100 BKN150
      TEMPO 2816/2818 26028G42KT=



000
FTUS45 KTFX 271700
TAFCTB
TAF
KCTB 271728Z 2718/2818 26025G35KT P6SM SCT120 BKN150
     FM280300 24015KT P6SM SCT120 BKN150
     FM281200 25025G35KT P6SM SCT100 BKN150
      TEMPO 2816/2818 26035G50KT=



000
FTUS45 KTFX 271700
TAFHVR
TAF
KHVR 271728Z 2718/2818 24010KT P6SM SCT120 BKN150
     FM272000 27015KT P6SM SCT150
     FM280200 24005KT P6SM SCT120=



000
FTUS45 KTFX 271700
TAFBZN
TAF
KBZN 271728Z 2718/2818 27010KT P6SM SCT120
     FM280300 15005KT P6SM SCT120
     FM281400 24011KT P6SM SCT100 BKN150=



000
FTUS45 KTFX 271700
TAFHVR
TAF
KHVR 271728Z 2718/2818 24010KT P6SM SCT120 BKN150
     FM272000 27015KT P6SM SCT150
     FM280200 24005KT P6SM SCT120=



000
FTUS45 KTFX 271700
TAFHLN
TAF
KHLN 271728Z 2718/2818 VRB05KT P6SM BKN150
     FM272000 27015KT P6SM SCT120 BKN150
     FM280300 22005KT P6SM SCT100 BKN150
     FM281500 26015G22KT P6SM SCT100 BKN150=



000
FTUS45 KTFX 271700
TAFGTF
TAF
KGTF 271728Z 2718/2818 25015G25KT P6SM SCT120 BKN150
     FM280200 23010KT P6SM SCT150
     FM280700 21015KT P6SM SCT120 BKN150
     FM281400 25020G30KT P6SM SCT100 BKN150
      TEMPO 2816/2818 26028G42KT=



000
FTUS45 KTFX 271700
TAFCTB
TAF
KCTB 271728Z 2718/2818 26025G35KT P6SM SCT120 BKN150
     FM280300 24015KT P6SM SCT120 BKN150
     FM281200 25025G35KT P6SM SCT100 BKN150
      TEMPO 2816/2818 26035G50KT=



000
FTUS45 KTFX 271700
TAFLWT
TAF
KLWT 271728Z 2718/2818 30011KT P6SM SCT120
     FM272000 29010G20KT P6SM SCT120 BKN150
     FM280100 23005KT P6SM SCT120=



000
FTUS45 KTFX 271100
TAFHLN
TAF
KHLN 271137Z 2712/2812 VRB05KT P6SM BKN150
     FM271800 27015KT P6SM SCT150
     FM280300 22005KT P6SM BKN150=



000
FTUS45 KTFX 271100
TAFHVR
TAF
KHVR 271137Z 2712/2812 24010KT P6SM BKN120
     FM271800 27015KT P6SM SCT150
     FM280200 24005KT P6SM SCT120=



000
FTUS45 KTFX 271100
TAFGTF
TAF
KGTF 271137Z 2712/2812 22010KT P6SM BKN120
     FM271700 24015G25KT P6SM SCT120
     FM280200 23010KT P6SM SCT150
     FM280700 21015G25KT P6SM BKN150=



000
FTUS45 KTFX 271100
TAFCTB
TAF
KCTB 271137Z 2712/2812 27015G25KT P6SM BKN150
     FM271500 26025G35KT P6SM BKN150
     FM280300 24015KT P6SM BKN120=



000
FTUS45 KTFX 271100
TAFLWT
TAF
KLWT 271137Z 2712/2812 25010KT P6SM BKN120
     FM271900 29010G20KT P6SM SCT150
     FM280200 23005KT P6SM SCT120=



000
FTUS45 KTFX 271100
TAFBZN
TAF
KBZN 271137Z 2712/2812 15005KT P6SM SCT150
     FM271700 27010KT P6SM SCT120
     FM280300 15005KT P6SM SCT120=



000
FTUS45 KTFX 271100
TAFHVR
TAF
KHVR 271137Z 2712/2812 24010KT P6SM BKN120
     FM271800 27015KT P6SM SCT150
     FM280200 24005KT P6SM SCT120=



000
FTUS45 KTFX 271100
TAFBZN
TAF
KBZN 271137Z 2712/2812 15005KT P6SM SCT150
     FM271700 27010KT P6SM SCT120
     FM280300 15005KT P6SM SCT120=



000
FTUS45 KTFX 271100
TAFLWT
TAF
KLWT 271137Z 2712/2812 25010KT P6SM BKN120
     FM271900 29010G20KT P6SM SCT150
     FM280200 23005KT P6SM SCT120=



000
FTUS45 KTFX 271100
TAFCTB
TAF
KCTB 271137Z 2712/2812 27015G25KT P6SM BKN150
     FM271500 26025G35KT P6SM BKN150
     FM280300 24015KT P6SM BKN120=



000
FTUS45 KTFX 271100
TAFHLN
TAF
KHLN 271137Z 2712/2812 VRB05KT P6SM BKN150
     FM271800 27015KT P6SM SCT150
     FM280300 22005KT P6SM BKN150=



000
FTUS45 KTFX 271100
TAFGTF
TAF
KGTF 271137Z 2712/2812 22010KT P6SM BKN120
     FM271700 24015G25KT P6SM SCT120
     FM280200 23010KT P6SM SCT150
     FM280700 21015G25KT P6SM BKN150=



000
FTUS45 KTFX 270500
TAFHVR
TAF
KHVR 270520Z 2706/2806 24008KT P6SM BKN120
     FM271800 26015G24KT P6SM SCT150
     FM280200 23008KT P6SM SCT120=



000
FTUS45 KTFX 270500
TAFLWT
TAF
KLWT 270520Z 2706/2806 30008KT P6SM BKN060 BKN120
     FM270900 25007KT P6SM BKN120
     FM271900 29017G24KT P6SM SCT150
     FM280200 23008KT P6SM SCT120=



000
FTUS45 KTFX 270500
TAFBZN
TAF
KBZN 270520Z 2706/2806 25007KT P6SM SCT060 BKN120
     FM271500 15004KT P6SM SCT150
     FM271800 25010KT P6SM SCT120=



000
FTUS45 KTFX 270500
TAFGTF
TAF
KGTF 270520Z 2706/2806 22012KT P6SM BKN120
     FM271700 24020G28KT P6SM SCT120
     FM280200 23010KT P6SM SCT150=



000
FTUS45 KTFX 270500
TAFHLN
TAF
KHLN 270520Z 2706/2806 28012G18KT P6SM SCT090 BKN150
      TEMPO 2706/2709 BKN090
     FM270900 26006KT P6SM BKN150
     FM271800 26012KT P6SM SCT150=



000
FTUS45 KTFX 270500
TAFHVR
TAF
KHVR 270520Z 2706/2806 24008KT P6SM BKN120
     FM271800 26015G24KT P6SM SCT150
     FM280200 23008KT P6SM SCT120=



000
FTUS45 KTFX 270500
TAFLWT
TAF
KLWT 270520Z 2706/2806 30008KT P6SM BKN060 BKN120
     FM270900 25007KT P6SM BKN120
     FM271900 29017G24KT P6SM SCT150
     FM280200 23008KT P6SM SCT120=



000
FTUS45 KTFX 270500
TAFBZN
TAF
KBZN 270520Z 2706/2806 25007KT P6SM SCT060 BKN120
     FM271500 15004KT P6SM SCT150
     FM271800 25010KT P6SM SCT120=



000
FTUS45 KTFX 270500
TAFCTB
TAF
KCTB 270520Z 2706/2806 26016KT P6SM SCT080 BKN120
     FM271500 26025G35KT P6SM SCT150
     FM280300 24012KT P6SM BKN120=



000
FTUS45 KTFX 270500
TAFCTB
TAF
KCTB 270520Z 2706/2806 26016KT P6SM SCT080 BKN120
     FM271500 26025G35KT P6SM SCT150
     FM280300 24012KT P6SM BKN120=



000
FTUS45 KTFX 270500
TAFHLN
TAF
KHLN 270520Z 2706/2806 28012G18KT P6SM SCT090 BKN150
      TEMPO 2706/2709 BKN090
     FM270900 26006KT P6SM BKN150
     FM271800 26012KT P6SM SCT150=



000
FTUS45 KTFX 270500
TAFGTF
TAF
KGTF 270520Z 2706/2806 22012KT P6SM BKN120
     FM271700 24020G28KT P6SM SCT120
     FM280200 23010KT P6SM SCT150=



000
FTUS45 KTFX 262300
TAFGTF
TAF
KGTF 262333Z 2700/2724 27020G28KT P6SM SCT080 BKN150
     FM270200 22015KT P6SM SCT100 BKN150
     FM270600 22010KT P6SM SCT150
     FM271700 24020G28KT P6SM SCT120=



000
FTUS45 KTFX 262300
TAFCTB
TAF
KCTB 262333Z 2700/2724 28025G35KT P6SM SCT080 BKN150
     FM270200 27018KT P6SM SCT100 BKN150
     FM271500 26025G35KT P6SM SCT150=



000
FTUS45 KTFX 262300
TAFLWT
TAF
KLWT 262333Z 2700/2724 30018G25KT P6SM BKN060 BKN120
     FM270200 28010KT P6SM SCT080 BKN120
     FM270600 25007KT P6SM BKN150
     FM271900 29017G24KT P6SM SCT150=



000
FTUS45 KTFX 262300
TAFHVR
TAF
KHVR 262333Z 2700/2724 29015G22KT P6SM SCT080 BKN150
     FM270200 25008KT P6SM SCT100 BKN150
     FM271800 26018G24KT P6SM SCT150=



000
FTUS45 KTFX 262300
TAFCTB
TAF
KCTB 262333Z 2700/2724 28025G35KT P6SM SCT080 BKN150
     FM270200 27018KT P6SM SCT100 BKN150
     FM271500 26025G35KT P6SM SCT150=



000
FTUS45 KTFX 262300
TAFGTF
TAF
KGTF 262333Z 2700/2724 27020G28KT P6SM SCT080 BKN150
     FM270200 22015KT P6SM SCT100 BKN150
     FM270600 22010KT P6SM SCT150
     FM271700 24020G28KT P6SM SCT120=



000
FTUS45 KTFX 262300
TAFHLN
TAF
KHLN 262333Z 2700/2724 28012G20KT P6SM SCT060 BKN100
     FM270200 26007KT P6SM SCT080 BKN150
     FM270700 25005KT P6SM SCT150=



000
FTUS45 KTFX 262300
TAFLWT
TAF
KLWT 262333Z 2700/2724 30018G25KT P6SM BKN060 BKN120
     FM270200 28010KT P6SM SCT080 BKN120
     FM270600 25007KT P6SM BKN150
     FM271900 29017G24KT P6SM SCT150=



000
FTUS45 KTFX 262300
TAFHVR
TAF
KHVR 262333Z 2700/2724 29015G22KT P6SM SCT080 BKN150
     FM270200 25008KT P6SM SCT100 BKN150
     FM271800 26018G24KT P6SM SCT150=



000
FTUS45 KTFX 262300
TAFBZN
TAF
KBZN 262333Z 2700/2724 28012KT P6SM BKN060 BKN120
     FM270200 26007KT P6SM SCT090 BKN150
     FM270700 15004KT P6SM SCT150=



000
FTUS45 KTFX 262300
TAFBZN
TAF
KBZN 262333Z 2700/2724 28012KT P6SM BKN060 BKN120
     FM270200 26007KT P6SM SCT090 BKN150
     FM270700 15004KT P6SM SCT150=



000
FTUS45 KTFX 262300
TAFHLN
TAF
KHLN 262333Z 2700/2724 28012G20KT P6SM SCT060 BKN100
     FM270200 26007KT P6SM SCT080 BKN150
     FM270700 25005KT P6SM SCT150=



    US Dept of Commerce
    National Oceanic and Atmospheric Administration
    National Weather Service
    1325 East West Highway
    Silver Spring, MD 20910
    Page Author: NWS Internet Services Team
Disclaimer
Information Quality
Credits
Glossary
Privacy Policy
Freedom of Information Act (FOIA)
About Us
Career Opportunities